ESSB/BMA METAR and TAF weather

Enter ICAO airport designator
Station Type Date Time Source
ESSB METAR 2019/10/21 23:20 UTC NOAA

ESSB 212320Z AUTO 19006KT 9999 OVC007/// 09/08 Q1016


Station Type Date Time Source
ESSB Decoded METAR 2019/10/21 23:20 UTC NOAA

Stockholm / Bromma, Sweden (ESSB) 59-21N 017-57E 14M
Oct 21, 2019 - 07:20 PM EDT / 2019.10.21 2320 UTC
Wind: from the S (190 degrees) at 7 MPH (6 KT):0
Visibility: greater than 7 mile(s):0
Sky conditions: overcast
Temperature: 48 F (9 C)
Dew Point: 46 F (8 C)
Relative Humidity: 93%
Pressure (altimeter): 30.00 in. Hg (1016 hPa)
ob: ESSB 212320Z AUTO 19006KT 9999 OVC007/// 09/08 Q1016
cycle: 23

Station Type Date Time Source
ESSB TAF 2017/03/27 06:35 UTC NOAA

TAF ESSB 270530Z 2706/2724 27008KT CAVOK
BECMG 2710/2713 29015G25KT

Example: see airport list